Friday, May 27, 2016
20:05 UTC
  |  Log In   |  Register Free
Airport Search:

Vidalia Regional Airport
(KVDI)

Vidalia Regional Airport Diagram
No Airport Diagram Available

FAA data valid effective Mar 31 2016 - May 26 2016 (unless otherwise noted).

 
 
 
 
 
 
 
 
 
 
 
 
 
 
Current Aviation Weather for KVDI

Weather Summary


The most recent METAR observation for VDI was updated at: 12:55 UTC
METAR for KVDI is not available. Closest METAR is for KAZE
KVDI  (most recent observation was updatred at 27:19 UTC)
271955Z AUTO 12004KT 10SM SCT065 30/13 A3005 RMK AO2

KAZE  (23.2 nm NE)   (most recent observation was updated at 27:19 UTC)
271955Z AUTO 09007KT 10SM SCT065 31/12 A3004 RMK AO2 T03060124

KSBO  (25.0 nm SW)   (most recent observation was updated at 27:19 UTC)
271955Z AUTO 10009G17KT 10SM SCT065 31/12 A3006 RMK AO2

TAF for KVDI is not available.
GlobalAir.com is loading additional information.
 Current Weather at VDI
86.0 F° (30.0 C°)

East winds at 9.2 mph
Pressure:
30.07 in
Humidity:
35%
Wind:
East at 9.2 mph
Dew Point:
55.4 F° (13.0 C°)
Visibility:
10.00 mi
VDI NOAA Radar




Find All Airport Services Find A Hotel Find A Rental Car Find A Golf Course Find A Restaurant $100 Hamburger



Airport Weather Forecast for KVDI

Translated METAR for KVDI (1955 UTC)
METAR:
KVDI 271955Z AUTO 12004KT 10SM SCT065 30/13 A3005 RMK AO2
Conditions at:
KVDI (Vidalia Rgnl, GA) observed 1955 UTC 27 May 2016
Temperature:
30°C (86°F)
Dewpoint:
13°C (55.4°F) [RH = 35.3]
Pressure:
30.05 inches Hg (1017.6 mb)
Winds:
from the ESE (120 degrees) at 4.6 mph (4 knots: 2.1 m/s)
Visibility:
10 mile(s)
Ceiling:
at least 12,000 feet AGL
Clouds:
Scattered Clouds at 6,500 feet AGL
Remarks:
site is un-manned
site is automated and HAS a precipitation sensor

Translated TAF for TAF for VDI is not available. Refer to local area forecast.
FBO's on the Field
FBO Company Facility Photos Services Transportation Aviation Fuel Prices: Prices include tax
Catering Weather Repair Courtesy Rental Type 100LL JetA JetA+ MOGAS 8087
 
Vidalia Regional Airport

This FBO has not yet been rated
FS:Phillips 66
Last Updated: May-15
Login to update fuel prices
SS:
Contact Vidalia Regional AirportMore FBO Information
 
Add another FBO Facility Photos Catering Weather Repair Courtesy Rental Type 100LL JetA JetA+ MOGAS 8087
Services Transportation Aviation Fuel Prices: Prices include tax


model-print
model-print
model-print
model-print